Time;durP1;ratioP1;P1;durP2;ratioP2;P2;SDS_P1;SDS_P2;PMS_P1;PMS_P2;Temp;Humidity;BMP_temperature;BMP_pressure;BME280_temperature;BME280_humidity;BME280_pressure;Samples;Min_cycle;Max_cycle;Signal;HPM_P1;HPM_P2
2022/08/12 00:44:24;;;;;;;10.13;4.40;;;16.10;85.90;;;;;;5073358;28;20409;-63
2022/08/12 00:46:59;;;;;;;8.50;4.55;;;16.20;85.80;;;;;;5083311;28;20518;-62
2022/08/12 00:49:26;;;;;;;6.22;4.07;;;16.20;85.20;;;;;;5084443;28;20042;-62
2022/08/12 00:52:10;;;;;;;6.72;4.40;;;16.30;85.00;;;;;;5078602;28;20489;-63
2022/08/12 00:54:37;;;;;;;5.93;4.10;;;16.20;85.40;;;;;;5089497;28;20075;-61
2022/08/12 00:57:05;;;;;;;7.32;4.53;;;16.10;86.00;;;;;;5089891;28;20470;-62
2022/08/12 00:59:32;;;;;;;9.60;4.70;;;15.90;87.60;;;;;;5081676;28;20028;-62
2022/08/12 01:02:00;;;;;;;6.50;4.53;;;15.80;87.90;;;;;;5074104;28;20028;-65
2022/08/12 01:12:44;;;;;;;7.78;4.88;;;15.70;88.20;;;;;;5081946;28;20034;-63
2022/08/12 01:15:12;;;;;;;7.50;4.65;;;15.70;88.80;;;;;;5087753;28;20332;-62
2022/08/12 01:17:43;;;;;;;7.03;4.68;;;15.60;89.60;;;;;;5070988;28;20469;-62
2022/08/12 01:20:12;;;;;;;;;;;15.60;89.00;;;;;;5070052;28;20067;-63
2022/08/12 01:22:53;;;;;;;6.60;4.45;;;15.60;89.90;;;;;;5076849;28;19962;-62
2022/08/12 01:25:19;;;;;;;;;;;15.60;89.80;;;;;;5085308;28;20052;-61
2022/08/12 01:27:48;;;;;;;7.97;4.53;;;15.60;90.10;;;;;;5090372;28;19908;-61
2022/08/12 01:30:15;;;;;;;6.80;4.88;;;15.50;90.60;;;;;;5087319;28;20397;-63
2022/08/12 01:32:44;;;;;;;11.93;4.55;;;15.50;90.40;;;;;;5090305;28;20036;-61
2022/08/12 01:35:12;;;;;;;6.93;4.50;;;15.50;90.70;;;;;;5087296;28;20047;-61
2022/08/12 01:38:01;;;;;;;7.43;4.40;;;15.50;90.80;;;;;;5089043;28;20032;-61
2022/08/12 01:40:30;;;;;;;11.77;5.00;;;15.60;90.90;;;;;;5082383;28;20031;-62
2022/08/12 01:43:00;;;;;;;6.68;4.30;;;15.60;90.80;;;;;;5082116;28;20024;-61
2022/08/12 01:45:28;;;;;;;10.75;4.78;;;15.50;91.30;;;;;;5083417;28;20039;-61
2022/08/12 01:48:38;;;;;;;8.40;4.95;;;15.50;91.60;;;;;;5089701;28;20039;-63
2022/08/12 01:51:20;;;;;;;6.67;5.00;;;15.40;91.40;;;;;;5076744;28;20040;-67
2022/08/12 01:53:58;;;;;;;8.70;4.90;;;15.40;91.70;;;;;;5088566;28;20032;-61
2022/08/12 01:56:28;;;;;;;7.05;4.60;;;15.30;92.20;;;;;;5082767;28;20625;-61
2022/08/12 02:01:48;;;;;;;8.75;4.85;;;15.20;92.50;;;;;;5074917;28;20409;-63
2022/08/12 02:11:17;;;;;;;7.20;4.45;;;14.80;94.30;;;;;;5086924;28;21116;-62
2022/08/12 02:13:45;;;;;;;9.55;4.97;;;14.80;94.00;;;;;;5070233;28;20020;-67
2022/08/12 02:16:36;;;;;;;7.82;4.72;;;14.80;95.10;;;;;;5080272;28;20039;-63
2022/08/12 02:19:09;;;;;;;7.63;5.20;;;14.80;94.40;;;;;;5088389;28;20062;-64
2022/08/12 02:21:45;;;;;;;8.90;5.10;;;14.80;94.70;;;;;;5073768;28;20378;-61
2022/08/12 02:24:19;;;;;;;6.95;4.78;;;14.80;94.90;;;;;;5086913;28;20115;-61
2022/08/12 02:26:47;;;;;;;7.30;5.00;;;14.70;95.40;;;;;;5080907;28;20025;-62
2022/08/12 02:29:14;;;;;;;8.70;4.90;;;14.80;95.30;;;;;;5083145;28;20020;-61
2022/08/12 02:31:44;;;;;;;7.88;4.88;;;14.70;95.40;;;;;;5079227;28;20031;-62
2022/08/12 02:34:13;;;;;;;8.55;4.93;;;14.70;95.80;;;;;;5069160;28;20032;-62
2022/08/12 02:36:39;;;;;;;9.48;4.75;;;14.80;95.70;;;;;;5088601;28;20119;-62
2022/08/12 02:39:14;;;;;;;6.63;4.57;;;14.80;95.90;;;;;;5090438;28;20024;-66
2022/08/12 02:41:44;;;;;;;6.85;4.88;;;14.80;95.90;;;;;;5081770;28;20513;-61
2022/08/12 02:44:14;;;;;;;7.78;5.15;;;14.70;96.40;;;;;;5072651;28;20024;-62
2022/08/12 02:46:42;;;;;;;7.25;4.85;;;14.70;97.00;;;;;;5087898;28;20400;-61
2022/08/12 02:49:28;;;;;;;7.57;4.55;;;14.60;97.50;;;;;;5084706;28;20028;-67
2022/08/12 02:51:55;;;;;;;7.78;5.03;;;14.60;97.40;;;;;;5090057;28;20036;-63
2022/08/12 02:54:22;;;;;;;7.65;4.93;;;14.60;97.80;;;;;;5082848;28;20098;-62
2022/08/12 02:56:48;;;;;;;8.93;5.50;;;14.50;98.20;;;;;;5084509;28;20110;-62
2022/08/12 02:59:15;;;;;;;8.25;5.35;;;14.40;98.40;;;;;;5086746;28;20755;-61
2022/08/12 03:01:46;;;;;;;8.98;5.20;;;14.10;99.30;;;;;;5086937;28;20089;-61
2022/08/12 03:04:21;;;;;;;10.27;5.85;;;13.90;99.90;;;;;;5070123;28;20031;-62
2022/08/12 03:06:55;;;;;;;8.00;5.32;;;13.70;99.90;;;;;;5071925;28;20037;-63
2022/08/12 03:09:23;;;;;;;8.27;5.22;;;13.70;99.90;;;;;;5083974;28;20119;-62
2022/08/12 03:11:55;;;;;;;7.35;4.95;;;13.50;99.90;;;;;;5086320;28;20031;-63
2022/08/12 03:14:27;;;;;;;10.70;5.72;;;13.50;99.90;;;;;;5079896;28;20032;-62
2022/08/12 03:17:08;;;;;;;8.30;5.55;;;13.50;99.90;;;;;;5091883;28;20036;-62
2022/08/12 03:19:36;;;;;;;8.57;5.18;;;13.50;99.90;;;;;;5090885;28;20113;-62
2022/08/12 03:22:11;;;;;;;9.77;5.35;;;13.50;99.90;;;;;;5092175;28;20032;-64
2022/08/12 03:24:41;;;;;;;9.55;5.30;;;13.60;99.90;;;;;;5086739;28;20037;-62
2022/08/12 03:27:10;;;;;;;7.78;4.90;;;13.60;99.90;;;;;;5091123;28;20043;-67
2022/08/12 03:29:37;;;;;;;7.63;4.95;;;13.60;99.90;;;;;;5084770;28;20458;-61
2022/08/12 03:32:04;;;;;;;8.48;5.28;;;13.70;99.90;;;;;;5072250;28;20501;-62
2022/08/12 03:34:34;;;;;;;7.72;5.35;;;13.60;99.90;;;;;;5075448;28;20044;-62
2022/08/12 03:37:01;;;;;;;9.02;5.50;;;13.60;99.90;;;;;;5094049;28;20040;-62
2022/08/12 03:39:40;;;;;;;8.57;5.60;;;13.60;99.90;;;;;;5082787;28;20057;-63
2022/08/12 03:42:15;;;;;;;9.43;5.63;;;13.50;99.90;;;;;;5084420;28;20035;-62
2022/08/12 04:01:25;;;;;;;12.75;5.63;;;13.10;99.90;;;;;;5082204;28;20042;-62
2022/08/12 04:03:51;;;;;;;9.65;5.90;;;13.10;99.90;;;;;;5081706;28;20024;-61
2022/08/12 04:06:20;;;;;;;8.32;5.85;;;13.00;99.90;;;;;;5075846;28;20955;-62
2022/08/12 04:08:48;;;;;;;7.97;5.60;;;13.20;99.90;;;;;;5089381;28;20024;-62
2022/08/12 04:14:10;;;;;;;8.68;5.70;;;13.10;99.90;;;;;;5082972;28;20061;-62
2022/08/12 04:16:37;;;;;;;9.23;5.88;;;13.00;99.90;;;;;;5083764;28;20039;-62
2022/08/12 04:19:04;;;;;;;9.95;6.20;;;12.90;99.90;;;;;;5083882;28;20048;-61
2022/08/12 04:21:33;;;;;;;9.75;6.10;;;12.90;99.90;;;;;;5084361;28;20040;-62
2022/08/12 04:24:00;;;;;;;11.18;6.43;;;12.90;99.90;;;;;;5088614;28;20024;-66
2022/08/12 04:26:29;;;;;;;10.05;6.70;;;12.90;99.90;;;;;;5088823;28;20027;-61
2022/08/12 04:28:57;;;;;;;10.35;5.80;;;12.90;99.90;;;;;;5079893;28;20027;-62
2022/08/12 04:31:29;;;;;;;11.57;6.30;;;13.00;99.90;;;;;;5090000;28;20055;-62
2022/08/12 04:33:56;;;;;;;9.40;5.85;;;13.00;99.90;;;;;;5090059;28;20046;-61
2022/08/12 04:36:22;;;;;;;8.93;5.88;;;13.00;99.90;;;;;;5086788;28;20020;-64
2022/08/12 04:38:49;;;;;;;10.63;5.72;;;12.90;99.90;;;;;;5088713;28;20496;-62
2022/08/12 04:41:15;;;;;;;11.77;6.07;;;12.90;99.90;;;;;;5089569;28;20055;-65
2022/08/12 04:43:40;;;;;;;10.93;6.47;;;12.90;99.90;;;;;;5071643;28;20032;-62
2022/08/12 04:46:06;;;;;;;10.82;6.65;;;12.90;99.90;;;;;;5117362;27;20493;-61
2022/08/12 04:48:32;;;;;;;9.25;6.28;;;13.00;99.90;;;;;;5090771;28;20164;-62
2022/08/12 04:50:57;;;;;;;9.77;5.85;;;13.10;99.90;;;;;;5086720;28;20031;-62
2022/08/12 04:53:23;;;;;;;9.80;6.20;;;13.20;99.90;;;;;;5088347;28;20052;-62
2022/08/12 04:55:51;;;;;;;9.85;5.90;;;13.30;99.90;;;;;;5070819;28;20048;-63
2022/08/12 04:58:16;;;;;;;11.90;5.93;;;13.40;99.90;;;;;;5081587;28;20440;-62
2022/08/12 05:00:42;;;;;;;9.10;6.25;;;13.60;99.90;;;;;;5079876;28;20032;-64
2022/08/12 05:03:08;;;;;;;7.88;5.93;;;13.70;99.90;;;;;;5089457;28;20027;-61
2022/08/12 05:05:34;;;;;;;9.10;5.82;;;13.80;99.90;;;;;;5082278;28;20051;-62
2022/08/12 05:08:00;;;;;;;10.00;6.13;;;14.00;99.90;;;;;;5090365;28;20032;-62
2022/08/12 05:10:26;;;;;;;10.10;6.10;;;14.00;99.90;;;;;;5085563;28;20885;-61
2022/08/12 05:12:56;;;;;;;10.68;6.38;;;14.10;99.90;;;;;;5082843;28;20098;-62
2022/08/12 05:15:22;;;;;;;11.70;6.57;;;14.20;99.90;;;;;;5084998;28;20071;-63
2022/08/12 05:17:48;;;;;;;10.77;6.30;;;14.30;99.90;;;;;;5076781;28;20066;-62
2022/08/12 05:20:18;;;;;;;9.93;6.60;;;14.20;99.90;;;;;;5088949;28;20043;-65
2022/08/12 05:22:44;;;;;;;9.27;6.50;;;14.20;99.90;;;;;;5080870;28;20032;-63
2022/08/12 05:25:11;;;;;;;8.82;5.97;;;14.10;99.90;;;;;;5072150;28;20047;-65
2022/08/12 05:27:40;;;;;;;16.23;6.45;;;14.10;99.90;;;;;;5087055;28;20032;-62
2022/08/12 05:30:07;;;;;;;10.82;5.82;;;14.20;99.90;;;;;;5088398;28;20369;-61
2022/08/12 05:32:33;;;;;;;8.25;5.45;;;14.30;99.90;;;;;;5098037;28;20065;-62
2022/08/12 05:35:05;;;;;;;8.93;6.03;;;14.50;99.90;;;;;;5104377;28;20149;-62
2022/08/12 05:37:34;;;;;;;11.18;5.97;;;14.60;99.90;;;;;;5088525;28;20028;-62
2022/08/12 05:40:02;;;;;;;12.18;5.97;;;14.80;99.90;;;;;;5087346;28;20036;-63
2022/08/12 05:42:28;;;;;;;13.57;6.43;;;15.00;99.90;;;;;;5084937;28;20031;-63
2022/08/12 05:44:53;;;;;;;9.90;6.22;;;15.10;99.90;;;;;;5087837;28;20398;-63
2022/08/12 05:47:19;;;;;;;9.13;5.82;;;15.20;99.90;;;;;;5089228;28;20031;-65
2022/08/12 05:49:45;;;;;;;12.45;6.65;;;15.20;99.90;;;;;;5080476;28;20123;-62
2022/08/12 05:52:10;;;;;;;11.43;6.38;;;15.40;99.90;;;;;;5070788;28;20411;-62
2022/08/12 05:54:40;;;;;;;17.13;6.15;;;15.60;99.90;;;;;;5084963;28;20036;-61
2022/08/12 05:57:06;;;;;;;11.90;6.07;;;15.70;99.90;;;;;;5087285;28;20016;-61
2022/08/12 05:59:31;;;;;;;9.50;6.15;;;15.90;99.90;;;;;;5087859;28;20073;-63
2022/08/12 06:02:08;;;;;;;9.63;5.88;;;16.10;99.90;;;;;;5085320;28;20036;-62
2022/08/12 06:04:34;;;;;;;7.30;5.50;;;16.30;99.90;;;;;;5088660;28;20386;-62
2022/08/12 06:07:00;;;;;;;8.88;5.15;;;16.50;99.90;;;;;;5086407;28;20020;-61
2022/08/12 06:09:29;;;;;;;8.50;4.93;;;16.80;99.90;;;;;;5085400;28;20459;-64
2022/08/12 06:11:55;;;;;;;9.30;4.88;;;17.10;99.90;;;;;;5080845;28;20035;-62
2022/08/12 06:14:21;;;;;;;7.22;4.70;;;17.40;99.90;;;;;;5089164;28;20044;-62
2022/08/12 06:16:48;;;;;;;9.13;4.80;;;17.60;99.90;;;;;;5088706;28;20490;-62
2022/08/12 06:19:14;;;;;;;10.23;4.78;;;17.90;99.90;;;;;;5077380;28;20797;-61
2022/08/12 06:21:41;;;;;;;9.20;4.30;;;18.10;99.20;;;;;;5083035;28;20137;-65
2022/08/12 06:24:07;;;;;;;7.97;4.72;;;18.40;98.60;;;;;;5079572;28;20386;-62
2022/08/12 06:26:33;;;;;;;6.30;4.22;;;18.60;98.10;;;;;;5075796;28;20032;-61
2022/08/12 06:28:59;;;;;;;6.97;4.47;;;18.70;96.80;;;;;;5089410;28;20029;-63
2022/08/12 06:31:25;;;;;;;8.27;4.07;;;18.90;96.20;;;;;;5083658;28;20035;-62
2022/08/12 06:33:52;;;;;;;7.25;4.20;;;19.10;95.20;;;;;;5078568;28;20087;-66
2022/08/12 06:36:21;;;;;;;10.90;3.83;;;19.30;95.70;;;;;;5079523;28;20036;-64
2022/08/12 06:38:47;;;;;;;7.25;4.20;;;19.40;94.80;;;;;;5081387;28;20029;-62
2022/08/12 06:43:58;;;;;;;7.75;4.47;;;19.60;94.20;;;;;;5082716;28;20078;-62
2022/08/12 06:46:26;;;;;;;8.75;4.03;;;19.70;93.70;;;;;;5075163;28;20394;-61
2022/08/12 06:48:57;;;;;;;8.75;3.80;;;19.80;92.70;;;;;;5083731;28;20128;-61
2022/08/12 06:51:29;;;;;;;6.85;3.78;;;19.90;92.70;;;;;;5084519;28;20058;-62
2022/08/12 06:53:55;;;;;;;5.70;3.88;;;20.10;91.60;;;;;;5084387;28;20498;-61
2022/08/12 06:56:22;;;;;;;10.73;4.40;;;20.10;91.90;;;;;;5090105;28;20047;-63
2022/08/12 06:58:48;;;;;;;7.93;3.65;;;20.40;91.20;;;;;;5089460;28;20036;-61
2022/08/12 07:01:14;;;;;;;6.95;4.10;;;20.40;90.30;;;;;;5084133;28;20501;-61
2022/08/12 07:03:40;;;;;;;6.50;3.90;;;20.60;89.70;;;;;;5091578;28;20256;-62
2022/08/12 07:06:12;;;;;;;5.82;3.60;;;20.60;89.80;;;;;;5094991;28;20561;-61
2022/08/12 07:08:39;;;;;;;8.85;3.80;;;20.80;89.60;;;;;;5085356;28;20482;-61
2022/08/12 07:11:08;;;;;;;8.63;3.67;;;20.90;89.80;;;;;;5082865;28;20024;-59
2022/08/12 07:13:42;;;;;;;6.32;3.92;;;21.20;88.80;;;;;;5083836;28;20470;-61
2022/08/12 07:16:10;;;;;;;7.70;3.67;;;21.30;84.90;;;;;;5088116;28;20094;-62
2022/08/12 07:18:36;;;;;;;6.70;3.50;;;21.30;85.40;;;;;;5091504;28;20040;-61
2022/08/12 07:21:04;;;;;;;5.32;3.58;;;21.20;85.60;;;;;;5090771;28;20484;-63
2022/08/12 07:23:32;;;;;;;6.72;3.35;;;21.30;85.10;;;;;;5078583;28;20113;-61
2022/08/12 07:26:01;;;;;;;6.93;3.65;;;21.50;85.40;;;;;;5095227;28;20024;-61
2022/08/12 07:28:29;;;;;;;7.38;3.85;;;21.60;84.20;;;;;;5091854;28;20028;-61
2022/08/12 07:30:56;;;;;;;4.90;3.38;;;21.70;83.40;;;;;;5092027;28;20039;-61
2022/08/12 07:33:28;;;;;;;7.38;3.85;;;21.90;82.00;;;;;;5084575;28;20438;-64
2022/08/12 07:35:57;;;;;;;5.18;3.60;;;21.90;80.70;;;;;;5092205;28;20040;-62
2022/08/12 07:38:30;;;;;;;5.90;3.42;;;21.90;81.10;;;;;;5083673;28;20528;-65
2022/08/12 07:41:18;;;;;;;9.65;3.70;;;22.00;81.90;;;;;;5081997;28;20035;-61
2022/08/12 07:43:52;;;;;;;5.05;3.35;;;22.30;81.20;;;;;;5088815;28;20016;-63
2022/08/12 07:46:21;;;;;;;7.20;3.47;;;22.40;79.00;;;;;;5090124;28;20041;-61
2022/08/12 07:48:55;;;;;;;8.07;3.63;;;22.40;78.50;;;;;;5087797;28;20028;-61
2022/08/12 07:51:22;;;;;;;5.65;3.78;;;22.50;77.70;;;;;;5090140;28;20055;-60
2022/08/12 07:53:48;;;;;;;5.07;3.13;;;22.70;76.40;;;;;;5084594;28;20111;-62
2022/08/12 07:56:15;;;;;;;5.82;3.75;;;22.90;78.00;;;;;;5085582;28;20530;-61
2022/08/12 07:58:41;;;;;;;9.80;3.38;;;23.00;75.20;;;;;;5089774;28;20031;-62
2022/08/12 08:01:10;;;;;;;8.70;3.50;;;23.10;74.90;;;;;;5086828;28;20031;-61
2022/08/12 08:04:54;;;;;;;8.38;3.20;;;23.40;74.10;;;;;;5088382;28;20039;-61
2022/08/12 08:06:26;;;;;;;7.65;3.20;;;23.50;73.00;;;;;;5079873;28;20028;-64
2022/08/12 08:08:55;;;;;;;11.73;3.28;;;23.50;72.20;;;;;;5088104;28;20096;-62
2022/08/12 08:14:06;;;;;;;7.25;3.40;;;23.80;70.80;;;;;;5084261;28;20074;-61
2022/08/12 08:16:32;;;;;;;6.95;3.03;;;24.00;69.40;;;;;;5087100;28;20090;-62
2022/08/12 08:18:58;;;;;;;9.82;3.47;;;24.10;69.20;;;;;;5089352;28;20546;-62
2022/08/12 08:21:28;;;;;;;6.78;3.30;;;24.10;66.40;;;;;;5084637;28;20032;-64
2022/08/12 08:26:38;;;;;;;9.65;3.42;;;24.30;68.20;;;;;;5088924;28;20082;-62
2022/08/12 08:29:03;;;;;;;7.00;2.95;;;24.30;64.10;;;;;;5090107;28;20059;-62
2022/08/12 08:31:29;;;;;;;8.45;3.03;;;24.20;62.90;;;;;;5080598;28;20063;-61
2022/08/12 08:33:55;;;;;;;6.82;3.30;;;24.30;64.10;;;;;;5082060;28;20033;-60
2022/08/12 08:36:20;;;;;;;4.93;3.20;;;24.40;63.90;;;;;;5087843;28;20089;-61
2022/08/12 08:38:47;;;;;;;7.38;3.00;;;24.60;63.00;;;;;;5092391;28;20027;-60
2022/08/12 08:43:58;;;;;;;4.22;2.88;;;25.10;61.90;;;;;;5087464;28;20129;-59
2022/08/12 08:46:25;;;;;;;7.15;2.70;;;25.50;61.00;;;;;;5088619;28;20035;-60
2022/08/12 08:48:52;;;;;;;5.72;2.72;;;25.20;59.30;;;;;;5091824;28;20028;-59
2022/08/12 08:51:17;;;;;;;9.27;2.90;;;25.10;59.60;;;;;;5083068;28;20024;-59
2022/08/12 08:53:44;;;;;;;5.22;2.83;;;25.20;58.20;;;;;;5089475;28;20492;-60
2022/08/12 08:56:10;;;;;;;3.50;2.90;;;25.10;57.90;;;;;;5082487;28;20058;-58
2022/08/12 08:58:41;;;;;;;9.55;3.10;;;25.10;57.40;;;;;;5085400;28;20470;-59
2022/08/12 09:01:07;;;;;;;3.25;2.33;;;25.10;57.90;;;;;;5083346;28;20035;-60
2022/08/12 09:03:32;;;;;;;5.40;2.50;;;25.10;57.80;;;;;;5076409;28;20040;-62
2022/08/12 09:06:01;;;;;;;4.65;3.00;;;25.00;57.90;;;;;;5082574;28;20031;-60
2022/08/12 09:08:28;;;;;;;3.60;2.53;;;25.20;57.00;;;;;;5087888;28;21666;-62
2022/08/12 09:13:26;;;;;;;4.72;2.78;;;25.10;56.20;;;;;;5077144;28;20063;-61
2022/08/12 09:13:43;;;;;;;4.07;2.63;;;25.10;56.40;;;;;;5073468;28;22194;-60
2022/08/12 09:16:09;;;;;;;5.95;2.78;;;25.00;56.70;;;;;;5074877;28;20090;-60
2022/08/12 09:18:34;;;;;;;5.35;2.60;;;24.90;59.40;;;;;;5078585;28;20058;-61
2022/08/12 09:21:02;;;;;;;6.18;2.45;;;25.00;56.60;;;;;;5071398;28;20533;-61
2022/08/12 09:23:28;;;;;;;11.18;2.35;;;25.00;55.50;;;;;;5078672;28;20458;-61
2022/08/12 09:25:53;;;;;;;6.97;2.63;;;25.00;55.30;;;;;;5094618;28;20043;-60
2022/08/12 09:28:25;;;;;;;5.25;2.50;;;25.20;55.50;;;;;;5089081;28;21830;-60
2022/08/12 09:30:52;;;;;;;9.70;2.63;;;25.40;54.80;;;;;;5079223;28;20388;-60
2022/08/12 09:33:18;;;;;;;6.10;2.50;;;25.30;54.80;;;;;;5070905;28;20032;-61
2022/08/12 09:35:44;;;;;;;7.93;2.60;;;25.40;55.10;;;;;;5076899;28;20032;-60
2022/08/12 09:38:16;;;;;;;3.35;2.60;;;25.40;54.50;;;;;;5074934;28;20682;-60
2022/08/12 09:40:43;;;;;;;7.13;2.47;;;25.40;55.20;;;;;;5081649;28;20032;-60
2022/08/12 09:45:56;;;;;;;8.57;2.50;;;25.60;52.60;;;;;;5081549;28;20089;-60
2022/08/12 09:48:21;;;;;;;6.45;2.80;;;25.50;53.00;;;;;;5092495;28;20028;-60
2022/08/12 09:50:49;;;;;;;5.25;2.58;;;25.50;52.90;;;;;;5084267;28;20046;-61
2022/08/12 09:53:23;;;;;;;3.83;2.53;;;25.70;53.00;;;;;;5089330;28;20115;-60
2022/08/12 09:55:55;;;;;;;5.72;2.70;;;25.90;53.40;;;;;;5086294;28;20044;-60
2022/08/12 09:58:28;;;;;;;4.22;2.97;;;25.90;52.40;;;;;;5078577;28;20073;-60
2022/08/12 10:00:56;;;;;;;4.90;2.58;;;26.00;53.10;;;;;;5088261;28;20545;-59
2022/08/12 10:03:30;;;;;;;3.60;2.50;;;26.10;52.50;;;;;;5074100;28;20035;-60
2022/08/12 10:05:58;;;;;;;4.10;2.83;;;26.00;52.50;;;;;;5079108;28;20714;-61
2022/08/12 10:08:26;;;;;;;6.43;2.70;;;26.00;53.10;;;;;;5087772;28;20541;-60
2022/08/12 10:13:40;;;;;;;4.63;3.05;;;26.00;51.90;;;;;;5069774;28;20044;-60
2022/08/12 10:16:21;;;;;;;5.78;2.63;;;26.30;52.30;;;;;;5075903;28;20028;-61
2022/08/12 10:18:48;;;;;;;;;;;26.60;52.90;;;;;;5080125;28;20060;-61
2022/08/12 10:21:19;;;;;;;4.20;2.80;;;26.80;51.60;;;;;;5085206;28;19994;-61
2022/08/12 10:23:47;;;;;;;11.75;3.08;;;26.90;52.00;;;;;;5082060;28;20028;-61
2022/08/12 10:31:44;;;;;;;8.73;2.83;;;26.80;51.10;;;;;;5074900;28;20030;-61
2022/08/12 10:34:12;;;;;;;11.55;3.13;;;27.20;51.40;;;;;;5084669;28;20056;-60
2022/08/12 10:36:42;;;;;;;7.60;2.90;;;26.90;51.00;;;;;;5068493;28;20117;-61
2022/08/12 10:39:13;;;;;;;8.45;3.05;;;26.80;51.10;;;;;;5079768;28;20043;-60
2022/08/12 10:44:24;;;;;;;7.35;3.50;;;26.20;52.60;;;;;;5080618;28;20027;-61
2022/08/12 10:46:54;;;;;;;6.18;3.00;;;26.00;52.00;;;;;;5084194;28;20043;-61
2022/08/12 10:49:24;;;;;;;6.72;2.33;;;25.80;52.40;;;;;;5071217;28;20064;-61
2022/08/12 10:51:50;;;;;;;8.68;2.58;;;26.40;52.60;;;;;;5067767;28;20047;-60
2022/08/12 10:54:18;;;;;;;4.20;2.70;;;27.10;50.70;;;;;;5082695;28;20034;-61
2022/08/12 10:56:48;;;;;;;6.53;2.80;;;27.50;48.20;;;;;;5082750;28;20552;-61
2022/08/12 10:59:16;;;;;;;9.38;2.80;;;27.50;49.50;;;;;;5085436;28;20039;-60
2022/08/12 11:01:42;;;;;;;4.85;2.75;;;27.20;49.20;;;;;;5085800;28;20043;-61
2022/08/12 11:04:12;;;;;;;3.47;2.60;;;26.80;49.00;;;;;;5086447;28;20043;-61
2022/08/12 11:06:46;;;;;;;9.55;2.63;;;26.50;50.30;;;;;;5074515;28;20044;-61
2022/08/12 11:09:16;;;;;;;7.97;2.65;;;26.20;49.90;;;;;;5086045;28;20402;-61
2022/08/12 11:11:43;;;;;;;3.45;2.78;;;26.00;51.20;;;;;;5087796;28;20545;-61
2022/08/12 11:14:09;;;;;;;4.95;2.72;;;26.00;52.00;;;;;;5087497;28;20036;-61
2022/08/12 11:16:34;;;;;;;6.07;2.75;;;26.70;51.80;;;;;;5092763;28;20080;-62
2022/08/12 11:19:00;;;;;;;16.42;2.92;;;27.40;49.50;;;;;;5088612;28;20672;-61
2022/08/12 11:21:25;;;;;;;8.13;2.65;;;27.50;48.10;;;;;;5083968;28;20474;-61
2022/08/12 11:23:51;;;;;;;13.30;3.08;;;27.50;48.80;;;;;;5086239;28;20031;-61
2022/08/12 11:26:17;;;;;;;10.63;2.80;;;27.80;47.30;;;;;;5087531;28;20517;-61
2022/08/12 11:28:43;;;;;;;3.67;2.38;;;27.80;46.30;;;;;;5090522;28;20035;-60
2022/08/12 11:31:09;;;;;;;3.15;2.33;;;27.90;47.40;;;;;;5090463;28;20386;-60
2022/08/12 11:33:35;;;;;;;3.78;2.60;;;28.40;47.10;;;;;;5080326;28;20367;-63
2022/08/12 11:36:09;;;;;;;4.55;2.58;;;28.40;47.90;;;;;;5091306;28;20032;-60
2022/08/12 11:38:35;;;;;;;5.25;2.70;;;28.10;46.80;;;;;;5083653;28;20039;-62
2022/08/12 11:41:04;;;;;;;7.78;2.83;;;28.00;46.20;;;;;;5084266;28;20032;-61
2022/08/12 11:43:30;;;;;;;6.55;2.30;;;27.70;45.90;;;;;;5088289;28;20123;-61
2022/08/12 11:45:56;;;;;;;7.28;2.53;;;27.60;47.50;;;;;;5101732;28;20039;-59
2022/08/12 11:48:22;;;;;;;6.93;2.55;;;27.70;45.30;;;;;;5088951;28;20032;-61
2022/08/12 11:50:48;;;;;;;3.58;2.30;;;27.60;46.60;;;;;;5071320;28;20550;-60
2022/08/12 11:53:14;;;;;;;5.22;2.45;;;27.90;46.60;;;;;;5092657;28;20027;-60
2022/08/12 11:55:40;;;;;;;7.50;2.72;;;28.20;47.40;;;;;;5085299;28;20398;-61
2022/08/12 11:58:05;;;;;;;4.85;2.35;;;28.30;46.50;;;;;;5084234;28;20033;-60
2022/08/12 12:00:31;;;;;;;17.40;2.47;;;28.40;46.10;;;;;;5104034;28;20031;-61
2022/08/12 12:02:57;;;;;;;3.08;2.30;;;28.70;46.00;;;;;;5116774;27;20021;-60
2022/08/12 12:05:22;;;;;;;7.68;2.08;;;28.60;45.70;;;;;;5085034;28;20036;-61
2022/08/12 12:07:48;;;;;;;3.20;2.20;;;28.60;44.90;;;;;;5076496;28;20166;-60
2022/08/12 12:10:18;;;;;;;6.78;2.70;;;28.30;43.50;;;;;;5086269;28;20032;-61
2022/08/12 12:12:44;;;;;;;4.40;2.00;;;28.40;46.00;;;;;;5088979;28;20119;-61
2022/08/12 12:15:10;;;;;;;8.05;2.22;;;28.90;44.20;;;;;;5090225;28;20406;-61
2022/08/12 12:17:38;;;;;;;3.67;2.38;;;29.00;43.70;;;;;;5075421;28;20036;-63
2022/08/12 12:20:08;;;;;;;7.05;2.53;;;29.30;44.30;;;;;;5079007;28;20036;-61
2022/08/12 12:22:35;;;;;;;3.65;2.50;;;29.00;44.60;;;;;;5083582;28;20027;-61
2022/08/12 12:25:01;;;;;;;21.70;3.28;;;28.50;43.90;;;;;;5087784;28;20074;-61
2022/08/12 12:27:26;;;;;;;6.07;2.30;;;28.10;46.90;;;;;;5090919;28;20024;-61
2022/08/12 12:29:54;;;;;;;5.60;2.60;;;27.90;45.40;;;;;;5073814;28;20036;-60
2022/08/12 12:32:19;;;;;;;4.53;2.03;;;27.70;45.70;;;;;;5074566;28;20519;-60
2022/08/12 12:34:45;;;;;;;4.80;2.50;;;27.50;46.80;;;;;;5075975;28;20037;-61
2022/08/12 12:37:12;;;;;;;3.90;2.28;;;27.70;45.70;;;;;;5074465;28;20086;-61
2022/08/12 12:39:39;;;;;;;3.97;2.35;;;27.60;46.30;;;;;;5076405;28;20036;-62
2022/08/12 12:42:05;;;;;;;2.47;2.00;;;27.10;46.10;;;;;;5085102;28;20066;-61
2022/08/12 12:44:30;;;;;;;4.00;1.98;;;27.00;46.00;;;;;;5077276;28;20060;-60
2022/08/12 12:46:56;;;;;;;7.35;2.17;;;26.70;46.20;;;;;;5071108;28;20442;-60
2022/08/12 12:49:22;;;;;;;11.07;2.22;;;26.70;46.10;;;;;;5083551;28;20036;-61
2022/08/12 12:51:48;;;;;;;3.92;2.20;;;27.00;45.70;;;;;;5091599;28;20059;-61
2022/08/12 12:54:13;;;;;;;4.07;2.15;;;27.70;46.90;;;;;;5079589;28;20074;-60
2022/08/12 12:56:41;;;;;;;4.95;2.25;;;28.00;45.80;;;;;;5085417;28;20127;-62
2022/08/12 12:59:07;;;;;;;5.22;2.30;;;28.30;43.30;;;;;;5083517;28;20024;-60
2022/08/12 13:01:36;;;;;;;5.75;2.55;;;28.30;43.80;;;;;;5072993;28;20090;-60
2022/08/12 13:04:04;;;;;;;2.60;1.88;;;28.60;43.40;;;;;;5084425;28;20046;-61
2022/08/12 13:06:30;;;;;;;6.63;2.10;;;28.70;43.50;;;;;;5080199;28;20055;-59
2022/08/12 13:08:57;;;;;;;5.28;1.90;;;28.80;42.30;;;;;;5081350;28;20060;-60
2022/08/12 13:11:23;;;;;;;2.72;1.75;;;28.50;42.60;;;;;;5090493;28;20085;-62
2022/08/12 13:13:50;;;;;;;3.45;1.80;;;28.30;43.30;;;;;;5071529;28;20505;-60
2022/08/12 13:16:20;;;;;;;4.45;2.00;;;28.50;43.20;;;;;;5070320;28;20421;-60
2022/08/12 13:18:47;;;;;;;;;;;28.70;44.30;;;;;;5088562;28;20410;-60
2022/08/12 13:21:16;;;;;;;5.95;2.10;;;28.50;43.70;;;;;;5089342;28;19908;-62
2022/08/12 13:23:44;;;;;;;2.65;2.20;;;28.50;43.10;;;;;;5070975;28;20036;-65
2022/08/12 13:26:14;;;;;;;2.40;1.63;;;28.40;43.60;;;;;;5069912;28;20052;-60
2022/08/12 13:28:44;;;;;;;2.33;2.03;;;28.70;44.10;;;;;;5086497;28;20504;-61
2022/08/12 13:31:11;;;;;;;4.07;2.20;;;28.90;42.60;;;;;;5078372;28;20030;-60
2022/08/12 13:33:38;;;;;;;3.67;1.92;;;29.00;42.60;;;;;;5088051;28;20564;-61
2022/08/12 13:36:04;;;;;;;4.38;1.70;;;29.30;42.30;;;;;;5088408;28;20028;-61
2022/08/12 13:38:56;;;;;;;8.15;2.00;;;29.30;40.60;;;;;;5088479;28;20111;-59
2022/08/12 13:41:31;;;;;;;2.67;1.95;;;28.60;40.30;;;;;;5086920;28;20052;-60
2022/08/12 13:44:02;;;;;;;6.78;1.90;;;28.60;41.30;;;;;;5088435;28;20382;-61
2022/08/12 13:46:28;;;;;;;6.82;1.70;;;28.40;42.20;;;;;;5091656;28;20478;-60
2022/08/12 13:48:55;;;;;;;3.13;1.90;;;28.10;41.90;;;;;;5089180;28;20050;-60
2022/08/12 13:51:22;;;;;;;5.15;1.80;;;28.20;42.80;;;;;;5089302;28;20036;-59
2022/08/12 13:53:48;;;;;;;7.97;1.88;;;28.50;41.60;;;;;;5089057;28;20035;-61
2022/08/12 13:56:13;;;;;;;4.45;1.83;;;28.70;42.00;;;;;;5089719;28;20030;-60
2022/08/12 13:58:47;;;;;;;5.68;1.90;;;28.60;42.00;;;;;;5090046;28;20039;-60
2022/08/12 14:01:19;;;;;;;6.35;2.10;;;28.30;43.50;;;;;;5088548;28;20020;-61
2022/08/12 14:03:46;;;;;;;6.03;2.00;;;27.80;43.30;;;;;;5082902;28;20039;-64
2022/08/12 14:06:12;;;;;;;4.63;1.80;;;27.40;44.60;;;;;;5092245;28;20503;-60
2022/08/12 14:08:38;;;;;;;2.10;1.63;;;27.00;44.20;;;;;;5089878;28;20051;-60
2022/08/12 14:11:04;;;;;;;3.28;1.70;;;26.90;46.30;;;;;;5089098;28;20102;-61
2022/08/12 14:13:31;;;;;;;7.15;2.03;;;27.20;43.90;;;;;;5089904;28;20036;-60
2022/08/12 14:15:59;;;;;;;3.28;1.40;;;27.50;43.30;;;;;;5085662;28;20135;-61
2022/08/12 14:18:33;;;;;;;3.08;1.80;;;27.50;43.30;;;;;;5078517;28;20093;-60
2022/08/12 14:21:11;;;;;;;4.28;1.85;;;27.50;43.40;;;;;;5080022;28;20106;-60
2022/08/12 14:23:41;;;;;;;5.10;1.73;;;27.00;44.20;;;;;;5090381;28;20028;-61
2022/08/12 14:26:08;;;;;;;;;;;27.20;43.90;;;;;;5088950;28;20031;-60
2022/08/12 14:28:35;;;;;;;3.13;1.67;;;27.10;43.10;;;;;;5083416;28;19915;-60
2022/08/12 14:31:04;;;;;;;9.45;2.80;;;27.30;44.10;;;;;;5081883;28;20028;-58
2022/08/12 14:33:30;;;;;;;7.78;2.05;;;27.10;43.00;;;;;;5080967;28;20036;-61
2022/08/12 14:35:56;;;;;;;4.03;1.92;;;26.70;44.40;;;;;;5083056;28;20032;-64
2022/08/12 14:38:25;;;;;;;2.53;1.75;;;26.40;44.80;;;;;;5079796;28;20622;-62